Lynradar: storm image Ingen tordenbyger registrert..



Vårt webkamera mer informasjon My webcam


Kamera på Foreneset mer informasjon webcam on foreneset


Nedbørsradar  rain snow radar


Besøk vår andre værside:

Alternativ webside

iphone versjon

Nettbrett versjon

Foreneset
verstasjon



Ikke nødvendig med spesiell oppmerksomhet.    Det er ingen advarsler

Select another period ( hide this area )

enheter Periode Custom range Directly to
Metric Engelsk Begge
Daglig Weekly Månedlig Årlig
use both date-selectors for a custom range
previous Dag
With this date

WeatherUnderground graphs for this period ( click here )


Daglig sammendrag for Søndag 21 Juli 2019
Tid Temp. ( °C ) Dew pt. ( °C ) Vind ( km/h ) fra Vindkast ( km/h ) Trykk ( hPa ) Humid.( % ) Rainrate ( cm ) Sol ( W/m2 )
Max15,3 15,3 11,1 Sør ( 100/223 ) 15,3 1006,4 100 0,80 0
Snitt15,2 15,2 6,6 Sør #16/34 9,8 1006,3 100 0,90 0 #0/34
Min15,1 14,9 -   3,7 1006,1 99 -  
Daglig Tabular details for Søndag 21 Juli 2019
Tid Temp. ( °C ) Dew pt. ( °C ) Vind ( km/h ) fra Vindkast ( km/h ) Trykk ( hPa ) Humid.( % ) Rainrate ( cm ) Sol ( W/m2 )
00:04 15,3 15,3   Stille 3,7 1006,2 100 0,80 -
00:09 15,3 15,3   Stille 3,7 1006,1 100 0,80 -
00:14 15,3 15,3 3,7 SSØ 5,6 1006,2 100 0,80 -
00:19 15,3 15,3 4,3 Sør 5,6 1006,3 100 0,60 -
00:24 15,3 15,3 2,7 Sør 5,6 1006,3 100 0,40 -
00:29 15,3 15,3 1,3 Sør 3,7 1006,3 100 0,20 -
00:34 15,3 15,3 3,9 SSV 6,8 1006,3 100 0,20 -
00:39 15,3 15,3 1,0 Sør 3,7 1006,3 100 0,20 -
00:44 15,3 15,3 6,4 Sør 9,3 1006,2 100 0,20 -
00:49 15,3 15,3 2,9 Sør 9,3 1006,2 100 0,20 -
00:54 15,3 15,3 7,4 14,8 1006,2 100 - -
00:59 15,3 15,3 10,9 SSØ 13,5 1006,3 100 - -
01:04 15,3 15,3 7,2 SSØ 11,9 1006,4 100 - -
01:09 15,3 15,3 7,9 SSØ 9,3 1006,3 100 - -
01:14 15,3 15,3 11,1 Sør 15,3 1006,3 100 - -
01:19 15,3 15,3 10,8 SSØ 14,8 1006,3 100 - -
01:24 15,2 15,2 8,8 SSØ 11,1 1006,3 100 - -
01:29 15,2 15,2 8,0 SSØ 15,3 1006,3 100 - -
01:34 15,2 15,2 10,6 SSØ 13,5 1006,1 100 - -
01:39 15,2 15,2 9,0 Sør 11,9 1006,1 100 - -
01:44 15,1 14,9 7,2 SSØ 10,1 1006,2 99 - -
01:49 15,1 15,1 7,9 Sør 11,1 1006,2 100 - -
01:54 15,1 15,1 6,4 Sør 9,3 1006,3 100 - -
01:59 15,1 15,1 9,2 Sør 11,9 1006,3 100 - -
02:04 15,1 15,1 7,1 Sør 9,3 1006,3 100 - -
02:09 15,2 15,2 10,1 SSV 13,5 1006,3 100 - -
02:14 15,2 15,2 7,7 SSV 10,1 1006,4 100 - -
02:19 15,2 15,2 10,5 Sør 11,1 1006,4 100 - -
02:24 15,1 15,1 8,7 SSV 11,1 1006,4 100 - -
02:29 15,1 15,1 9,0 Sør 11,9 1006,4 100 - -
02:34 15,1 15,1 5,6 SSV 9,3 1006,4 100 - -
02:39 15,2 15,2 6,8 Sør 10,1 1006,4 100 - -
02:44 15,2 15,2 4,5 SSØ 7,4 1006,3 100 - -
02:49 15,2 15,2 4,7 Sør 7,4 1006,3 100 - -
Daglig sammendrag for Søndag 21 Juli 2019
Tid Temp. ( °C ) Dew pt. ( °C ) Vind ( km/h ) fra Vindkast ( km/h ) Trykk ( hPa ) Humid.( % ) Rainrate ( cm ) Sol ( W/m2 )
Max15,3 15,3 11,1 Sør ( 100/223 ) 15,3 1006,4 100 0,80 0
Snitt15,2 15,2 6,6 Sør #16/34 9,8 1006,3 100 0,90 0 #0/34
Min15,1 14,9 -   3,7 1006,1 99 -  
Daglig Tabular details for Søndag 21 Juli 2019
Tid Temp. ( °C ) Dew pt. ( °C ) Vind ( km/h ) fra Vindkast ( km/h ) Trykk ( hPa ) Humid.( % ) Rainrate ( cm ) Sol ( W/m2 )
00:04 15,3 15,3   Stille 3,7 1006,2 100 0,80 -
00:09 15,3 15,3   Stille 3,7 1006,1 100 0,80 -
00:14 15,3 15,3 3,7 SSØ 5,6 1006,2 100 0,80 -
00:19 15,3 15,3 4,3 Sør 5,6 1006,3 100 0,60 -
00:24 15,3 15,3 2,7 Sør 5,6 1006,3 100 0,40 -
00:29 15,3 15,3 1,3 Sør 3,7 1006,3 100 0,20 -
00:34 15,3 15,3 3,9 SSV 6,8 1006,3 100 0,20 -
00:39 15,3 15,3 1,0 Sør 3,7 1006,3 100 0,20 -
00:44 15,3 15,3 6,4 Sør 9,3 1006,2 100 0,20 -
00:49 15,3 15,3 2,9 Sør 9,3 1006,2 100 0,20 -
00:54 15,3 15,3 7,4 14,8 1006,2 100 - -
00:59 15,3 15,3 10,9 SSØ 13,5 1006,3 100 - -
01:04 15,3 15,3 7,2 SSØ 11,9 1006,4 100 - -
01:09 15,3 15,3 7,9 SSØ 9,3 1006,3 100 - -
01:14 15,3 15,3 11,1 Sør 15,3 1006,3 100 - -
01:19 15,3 15,3 10,8 SSØ 14,8 1006,3 100 - -
01:24 15,2 15,2 8,8 SSØ 11,1 1006,3 100 - -
01:29 15,2 15,2 8,0 SSØ 15,3 1006,3 100 - -
01:34 15,2 15,2 10,6 SSØ 13,5 1006,1 100 - -
01:39 15,2 15,2 9,0 Sør 11,9 1006,1 100 - -
01:44 15,1 14,9 7,2 SSØ 10,1 1006,2 99 - -
01:49 15,1 15,1 7,9 Sør 11,1 1006,2 100 - -
01:54 15,1 15,1 6,4 Sør 9,3 1006,3 100 - -
01:59 15,1 15,1 9,2 Sør 11,9 1006,3 100 - -
02:04 15,1 15,1 7,1 Sør 9,3 1006,3 100 - -
02:09 15,2 15,2 10,1 SSV 13,5 1006,3 100 - -
02:14 15,2 15,2 7,7 SSV 10,1 1006,4 100 - -
02:19 15,2 15,2 10,5 Sør 11,1 1006,4 100 - -
02:24 15,1 15,1 8,7 SSV 11,1 1006,4 100 - -
02:29 15,1 15,1 9,0 Sør 11,9 1006,4 100 - -
02:34 15,1 15,1 5,6 SSV 9,3 1006,4 100 - -
02:39 15,2 15,2 6,8 Sør 10,1 1006,4 100 - -
02:44 15,2 15,2 4,5 SSØ 7,4 1006,3 100 - -
02:49 15,2 15,2 4,7 Sør 7,4 1006,3 100 - -

Download your copy of this data-set  here

Our weather-data as stored at Weather Underground. Script utviklet av Jim McMurry. Tilrettelagt for malen av Leuven-Template.eu

Du finner vår vær info også på:

UK Metoffice

European Weather Network

WeatherCloud

Weather Underground

Utstyr vi bruker:

Værstsjon
Davis VP2

Værprogram
Weather Display

Davis VP2

Weather Display